Seabourn Quest — C6YZ5 — position and weather

sailwx.info

Track history (hours):
 
Tides and Currents Weather Stations Pressure Air Temp Water Temp Dewpoint Dewpoint Depression Visibility Wind Speed Wind Dir Waves Ship Positions

Seabourn Quest

Last reported at 2014-Oct-30 12:00 UTC. Time now 2014-Nov-01 03:04 UTC.
Position N 15°48' W 061°30'.

Length 197 m; draft 6.6 m.

Type: Passenger vessel. MMSI: 311038900.

Wind from 130 at 10 knots

Barometer 1011.0 mb
Air temperature 30.5 ° C
Visibility: greater than 10.8 NM
Dewpoint 23.9 ° C
Water temperature 30.0 ° C

Date/timePositionNaut miles runAvg speedWind from/ knotsBaromVisibWave heightAir tempDewpointWater temp
2014-Oct-30 12:00N 15°48' W 061°30'7139594.9 130 / 101011.010.8 30.523.930.0
2014-Oct-30 00:00N 17°36' E 062°42'7137594.8 210 / 151008.0 5.4 29.0 29.0
2014-Oct-29 12:00N 17°54' W 062°12'5622.1 999 / 41013.010.8 33.927.430.0
2014-Oct-29 09:26N 17°60' W 063°11'1213.4
2014-Oct-29 08:33N 18°05' W 063°22'7386226.9
2014-Oct-28 00:00N 20°24' E 067°00'7659638.2 050 / 71012.0 5.4 28.2
2014-Oct-27 12:00N 22°00' W 069°54'18415.3 050 / 81014.027.0 27.0
2014-Oct-27 00:00N 23°30' W 072°48'40617.3 020 / 201012.0 5.4 27.0 29.0
2014-Oct-26 00:30N 26°09' W 079°40'1718.0
2014-Oct-25 23:33N 26°06' W 079°59'8 6.8
2014-Oct-25 22:27N 26°05' W 080°07'0 0.0
2014-Oct-25 21:27N 26°05' W 080°07'0 0.0
2014-Oct-25 20:27N 26°05' W 080°07'0 0.0
2014-Oct-25 19:30N 26°05' W 080°07'0 0.0
2014-Oct-25 18:30N 26°05' W 080°07'0 0.0
2014-Oct-25 17:30N 26°05' W 080°07'0 0.0
2014-Oct-25 16:33N 26°05' W 080°07'0 0.0
2014-Oct-25 15:33N 26°05' W 080°07'0 0.0
2014-Oct-25 14:33N 26°05' W 080°07'0 0.0
2014-Oct-25 13:33N 26°05' W 080°07'0 0.0
2014-Oct-25 12:33N 26°05' W 080°07'0 0.0
2014-Oct-25 11:33N 26°05' W 080°07'0 0.0
2014-Oct-25 10:32N 26°05' W 080°07'6 5.8
2014-Oct-25 09:33N 26°06' W 080°01'8 7.7
2014-Oct-25 08:33N 26°13' W 079°58'1010.2
2014-Oct-25 07:33N 26°23' W 079°57'1110.6
2014-Oct-25 06:33N 26°34' W 079°57'  
2014-Oct-21 02:33N 40°27' W 071°41'1212.2
2014-Oct-21 01:33N 40°38' W 071°36'1212.3
2014-Oct-21 00:33N 40°50' W 071°32'1212.3
2014-Oct-20 23:33N 41°02' W 071°26'1212.2
2014-Oct-20 22:33N 41°14' W 071°25'1212.1
2014-Oct-20 21:33N 41°26' W 071°24'4 4.0
2014-Oct-20 20:28N 41°29' W 071°20'0 0.0
2014-Oct-20 19:16N 41°29' W 071°20'0 0.1
2014-Oct-20 18:28N 41°29' W 071°20'0 0.0
2014-Oct-20 17:31N 41°29' W 071°20'0 0.1
2014-Oct-20 16:28N 41°29' W 071°20'0 0.0
2014-Oct-20 15:22N 41°29' W 071°20'0 0.0
2014-Oct-20 14:31N 41°29' W 071°20'0 0.0
2014-Oct-20 13:30N 41°29' W 071°20'0 0.0
2014-Oct-20 12:30N 41°29' W 071°20'  
Track history (hours):
 
Tides and Currents Weather Stations Pressure Air Temp Water Temp Dewpoint Dewpoint Depression Visibility Wind Speed Wind Dir Waves Ship Positions

Seabourn Quest

Last reported at 2014-Oct-30 12:00 UTC. Time now 2014-Nov-01 03:04 UTC.
Position N 15°48' W 061°30'.

Length 197 m; draft 6.6 m.

Type: Passenger vessel. MMSI: 311038900.

Wind from 130 at 10 knots

Barometer 1011.0 mb
Air temperature 30.5 ° C
Visibility: greater than 10.8 NM
Dewpoint 23.9 ° C
Water temperature 30.0 ° C

Date/timePositionNaut miles runAvg speedWind from/ knotsBaromVisibWave heightAir tempDewpointWater temp
2014-Oct-30 12:00N 15°48' W 061°30'7139594.9 130 / 101011.010.8 30.523.930.0
2014-Oct-30 00:00N 17°36' E 062°42'7137594.8 210 / 151008.0 5.4 29.0 29.0
2014-Oct-29 12:00N 17°54' W 062°12'5622.1 999 / 41013.010.8 33.927.430.0
2014-Oct-29 09:26N 17°60' W 063°11'1213.4
2014-Oct-29 08:33N 18°05' W 063°22'7386226.9
2014-Oct-28 00:00N 20°24' E 067°00'7659638.2 050 / 71012.0 5.4 28.2
2014-Oct-27 12:00N 22°00' W 069°54'18415.3 050 / 81014.027.0 27.0
2014-Oct-27 00:00N 23°30' W 072°48'40617.3 020 / 201012.0 5.4 27.0 29.0
2014-Oct-26 00:30N 26°09' W 079°40'1718.0
2014-Oct-25 23:33N 26°06' W 079°59'8 6.8
2014-Oct-25 22:27N 26°05' W 080°07'0 0.0
2014-Oct-25 21:27N 26°05' W 080°07'0 0.0
2014-Oct-25 20:27N 26°05' W 080°07'0 0.0
2014-Oct-25 19:30N 26°05' W 080°07'0 0.0
2014-Oct-25 18:30N 26°05' W 080°07'0 0.0
2014-Oct-25 17:30N 26°05' W 080°07'0 0.0
2014-Oct-25 16:33N 26°05' W 080°07'0 0.0
2014-Oct-25 15:33N 26°05' W 080°07'0 0.0
2014-Oct-25 14:33N 26°05' W 080°07'0 0.0
2014-Oct-25 13:33N 26°05' W 080°07'0 0.0
2014-Oct-25 12:33N 26°05' W 080°07'0 0.0
2014-Oct-25 11:33N 26°05' W 080°07'0 0.0
2014-Oct-25 10:32N 26°05' W 080°07'6 5.8
2014-Oct-25 09:33N 26°06' W 080°01'8 7.7
2014-Oct-25 08:33N 26°13' W 079°58'1010.2
2014-Oct-25 07:33N 26°23' W 079°57'1110.6
2014-Oct-25 06:33N 26°34' W 079°57'  
2014-Oct-21 02:33N 40°27' W 071°41'1212.2
2014-Oct-21 01:33N 40°38' W 071°36'1212.3
2014-Oct-21 00:33N 40°50' W 071°32'1212.3
2014-Oct-20 23:33N 41°02' W 071°26'1212.2
2014-Oct-20 22:33N 41°14' W 071°25'1212.1
2014-Oct-20 21:33N 41°26' W 071°24'4 4.0
2014-Oct-20 20:28N 41°29' W 071°20'0 0.0
2014-Oct-20 19:16N 41°29' W 071°20'0 0.1
2014-Oct-20 18:28N 41°29' W 071°20'0 0.0
2014-Oct-20 17:31N 41°29' W 071°20'0 0.1
2014-Oct-20 16:28N 41°29' W 071°20'0 0.0
2014-Oct-20 15:22N 41°29' W 071°20'0 0.0
2014-Oct-20 14:31N 41°29' W 071°20'0 0.0
2014-Oct-20 13:30N 41°29' W 071°20'0 0.0
2014-Oct-20 12:30N 41°29' W 071°20'  

Dump ship's entire track history